Time;durP1;ratioP1;P1;durP2;ratioP2;P2;SDS_P1;SDS_P2;PMS_P1;PMS_P2;Temp;Humidity;BMP_temperature;BMP_pressure;BME280_temperature;BME280_humidity;BME280_pressure;Samples;Min_cycle;Max_cycle;Signal;HPM_P1;HPM_P2
2022/11/26 00:01:19;;;;;;;43.25;24.40;;;3.80;99.90;;;;;;5026056;28;20038;-78
2022/11/26 00:03:46;;;;;;;47.72;24.42;;;3.80;99.90;;;;;;5000306;28;20059;-79
2022/11/26 00:06:31;;;;;;;44.35;23.27;;;3.80;99.90;;;;;;5000300;28;20038;-79
2022/11/26 00:08:58;;;;;;;40.72;22.83;;;3.70;99.90;;;;;;5024621;28;20050;-78
2022/11/26 00:11:23;;;;;;;50.30;23.95;;;3.70;99.90;;;;;;5014212;28;20038;-79
2022/11/26 00:13:49;;;;;;;45.28;22.92;;;3.70;99.90;;;;;;5014795;28;20496;-78
2022/11/26 00:16:14;;;;;;;36.20;21.65;;;3.60;99.90;;;;;;5014523;28;20045;-78
2022/11/26 00:18:41;;;;;;;39.40;21.70;;;3.60;99.90;;;;;;5029134;28;20048;-78
2022/11/26 00:21:22;;;;;;;39.30;21.15;;;3.60;99.90;;;;;;4995200;28;20065;-78
2022/11/26 00:23:49;;;;;;;44.58;24.05;;;3.60;99.90;;;;;;5000600;28;20041;-79
2022/11/26 00:26:23;;;;;;;46.97;24.40;;;3.60;99.90;;;;;;4994494;28;20042;-78
2022/11/26 00:28:59;;;;;;;50.05;24.52;;;3.60;99.90;;;;;;4994639;28;20051;-78
2022/11/26 00:31:25;;;;;;;45.47;23.27;;;3.60;99.90;;;;;;4994561;28;20483;-78
2022/11/26 00:33:51;;;;;;;47.35;23.08;;;3.50;99.90;;;;;;4985587;28;20045;-78
2022/11/26 00:36:21;;;;;;;41.28;22.63;;;3.50;99.90;;;;;;5013757;28;20048;-78
2022/11/26 00:38:51;;;;;;;45.38;22.50;;;3.50;99.90;;;;;;5006161;28;20038;-78
2022/11/26 00:41:20;;;;;;;45.95;23.65;;;3.50;99.90;;;;;;5027443;28;20550;-78
2022/11/26 00:43:46;;;;;;;52.45;24.77;;;3.50;99.90;;;;;;5013320;28;20034;-77
2022/11/26 00:46:17;;;;;;;52.25;24.35;;;3.50;99.90;;;;;;5013742;28;20100;-78
2022/11/26 00:48:43;;;;;;;46.08;23.75;;;3.50;99.90;;;;;;5011620;28;20112;-78
2022/11/26 00:51:24;;;;;;;48.30;22.85;;;3.50;99.90;;;;;;5013744;28;20492;-78
2022/11/26 00:53:53;;;;;;;51.80;25.58;;;3.50;99.90;;;;;;5002524;28;20076;-78
2022/11/26 00:56:20;;;;;;;56.33;25.55;;;3.50;99.90;;;;;;5014036;28;20393;-79
2022/11/26 00:58:47;;;;;;;39.22;22.45;;;3.50;99.90;;;;;;5012512;28;20034;-78
2022/11/26 01:01:17;;;;;;;73.20;26.65;;;3.50;99.90;;;;;;5006757;28;20049;-78
2022/11/26 01:03:42;;;;;;;50.85;25.25;;;3.50;99.90;;;;;;4989509;28;20048;-78
2022/11/26 01:06:31;;;;;;;48.53;23.63;;;3.50;99.90;;;;;;4995363;28;20038;-78
2022/11/26 01:08:57;;;;;;;43.17;22.13;;;3.40;99.90;;;;;;5009349;28;20069;-78
2022/11/26 01:11:23;;;;;;;51.85;25.80;;;3.40;99.90;;;;;;5006784;28;20497;-78
2022/11/26 01:13:52;;;;;;;44.85;22.77;;;3.50;99.90;;;;;;5029761;28;20038;-78
2022/11/26 01:16:22;;;;;;;46.63;23.25;;;3.50;99.90;;;;;;5028522;28;20081;-78
2022/11/26 01:18:49;;;;;;;50.00;23.05;;;3.40;99.90;;;;;;5005244;28;20420;-78
2022/11/26 01:21:16;;;;;;;54.13;24.55;;;3.50;99.90;;;;;;5030054;28;20042;-78
2022/11/26 01:23:42;;;;;;;48.00;24.23;;;3.50;99.90;;;;;;4993573;28;20558;-78
2022/11/26 01:26:23;;;;;;;44.72;22.05;;;3.40;99.90;;;;;;5007720;28;20038;-79
2022/11/26 01:28:48;;;;;;;41.00;21.58;;;3.40;99.90;;;;;;5011505;28;20041;-78
2022/11/26 01:31:25;;;;;;;47.42;21.45;;;3.40;99.90;;;;;;5026519;28;20042;-78
2022/11/26 01:33:52;;;;;;;57.22;24.23;;;3.40;99.90;;;;;;5013278;28;20462;-78
2022/11/26 01:36:32;;;;;;;50.55;21.77;;;3.40;99.90;;;;;;4996967;28;20408;-78
2022/11/26 01:39:05;;;;;;;44.42;22.17;;;3.40;99.90;;;;;;5026266;28;20079;-78
2022/11/26 01:41:46;;;;;;;42.72;21.27;;;3.40;99.90;;;;;;4988411;28;20047;-78
2022/11/26 01:44:24;;;;;;;43.92;21.00;;;3.30;99.90;;;;;;5011973;28;20045;-78
2022/11/26 01:46:51;;;;;;;48.05;22.40;;;3.40;99.90;;;;;;5011639;28;20038;-79
2022/11/26 01:49:21;;;;;;;59.47;24.05;;;3.40;99.90;;;;;;5012396;28;20084;-78
2022/11/26 01:51:57;;;;;;;46.95;22.70;;;3.40;99.90;;;;;;5010146;28;20505;-78
2022/11/26 01:54:23;;;;;;;50.78;23.65;;;3.40;99.90;;;;;;5012731;28;20050;-79
2022/11/26 01:56:54;;;;;;;43.63;22.48;;;3.40;99.90;;;;;;5012703;28;20042;-79
2022/11/26 01:59:25;;;;;;;55.70;24.95;;;3.40;99.90;;;;;;5012544;28;20037;-78
2022/11/26 02:01:53;;;;;;;41.42;22.40;;;3.50;99.90;;;;;;5011840;28;20037;-78
2022/11/26 02:04:25;;;;;;;58.22;25.33;;;3.50;99.90;;;;;;5010874;28;20488;-78
2022/11/26 02:06:52;;;;;;;51.38;24.92;;;3.50;99.90;;;;;;5004834;28;20061;-78
2022/11/26 02:09:18;;;;;;;56.42;24.75;;;3.50;99.90;;;;;;5012084;28;20044;-78
2022/11/26 02:11:44;;;;;;;84.10;30.23;;;3.50;99.90;;;;;;5011290;28;20069;-78
2022/11/26 02:14:14;;;;;;;45.88;23.33;;;3.60;99.90;;;;;;5027734;28;20124;-78
2022/11/26 02:16:55;;;;;;;64.63;26.75;;;3.60;99.90;;;;;;5011750;28;20065;-78
2022/11/26 02:19:43;;;;;;;40.70;21.67;;;3.60;99.90;;;;;;5012296;28;20661;-78
2022/11/26 02:22:33;;;;;;;52.22;23.05;;;3.50;99.90;;;;;;5011443;28;20377;-78
2022/11/26 02:25:37;;;;;;;47.85;22.63;;;3.50;99.90;;;;;;5012386;28;20461;-78
2022/11/26 02:28:40;;;;;;;54.42;23.70;;;3.60;99.90;;;;;;5008470;28;20076;-78
2022/11/26 02:31:05;;;;;;;52.83;23.75;;;3.60;99.90;;;;;;5005751;28;20116;-78
2022/11/26 02:34:21;;;;;;;53.95;24.85;;;3.60;99.90;;;;;;5011674;28;20177;-77
2022/11/26 02:36:55;;;;;;;61.97;24.42;;;3.60;99.90;;;;;;4974864;28;20133;-78
2022/11/26 02:39:23;;;;;;;50.72;22.77;;;3.50;99.90;;;;;;5027644;28;20042;-77
2022/11/26 02:41:51;;;;;;;52.30;24.35;;;3.50;99.90;;;;;;5010457;28;20073;-78
2022/11/26 02:44:21;;;;;;;43.50;22.98;;;3.50;99.90;;;;;;5010672;28;20045;-78
2022/11/26 02:46:50;;;;;;;49.92;24.48;;;3.50;99.90;;;;;;5011395;28;20033;-78
2022/11/26 02:49:19;;;;;;;42.97;22.23;;;3.50;99.90;;;;;;5011326;28;20081;-79
2022/11/26 02:51:51;;;;;;;64.93;27.38;;;3.50;99.90;;;;;;5007686;28;20068;-77
2022/11/26 02:54:18;;;;;;;61.08;25.45;;;3.50;99.90;;;;;;5019858;28;20396;-78
2022/11/26 02:56:45;;;;;;;56.70;25.23;;;3.50;99.90;;;;;;5027835;28;20042;-78
2022/11/26 02:59:11;;;;;;;45.83;23.60;;;3.50;99.90;;;;;;5011128;28;20080;-78
2022/11/26 03:02:10;;;;;;;52.67;24.63;;;3.50;99.90;;;;;;5010183;28;20042;-78
2022/11/26 03:04:42;;;;;;;56.45;25.70;;;3.40;99.90;;;;;;5004518;28;20042;-78
2022/11/26 03:07:13;;;;;;;46.50;23.92;;;3.30;99.90;;;;;;5011122;28;20034;-77
2022/11/26 03:09:51;;;;;;;46.10;23.42;;;3.30;99.90;;;;;;5009900;28;20038;-78
2022/11/26 03:12:17;;;;;;;61.38;27.63;;;3.30;99.90;;;;;;5010893;28;20410;-78
2022/11/26 03:14:43;;;;;;;63.22;26.42;;;3.30;99.90;;;;;;5011110;28;20045;-78
2022/11/26 03:17:09;;;;;;;58.80;25.38;;;3.20;99.90;;;;;;5011260;28;20556;-78
2022/11/26 03:19:34;;;;;;;55.03;25.25;;;3.20;99.90;;;;;;4993670;28;20034;-77
2022/11/26 03:22:00;;;;;;;80.30;27.38;;;3.10;99.90;;;;;;5007057;28;20092;-78
2022/11/26 03:24:25;;;;;;;46.72;22.33;;;3.10;99.90;;;;;;5011291;28;20133;-78
2022/11/26 03:26:51;;;;;;;42.58;22.35;;;3.00;99.90;;;;;;5011007;28;20096;-78
2022/11/26 03:29:17;;;;;;;56.22;23.52;;;3.00;99.90;;;;;;5010152;28;20564;-81
2022/11/26 03:31:42;;;;;;;50.75;24.02;;;2.90;99.90;;;;;;5026059;28;20046;-77
2022/11/26 03:34:08;;;;;;;45.03;23.95;;;2.90;99.90;;;;;;5007213;28;20038;-77
2022/11/26 03:36:34;;;;;;;46.80;25.17;;;2.90;99.90;;;;;;5010285;28;20064;-78
2022/11/26 03:38:59;;;;;;;64.15;26.48;;;3.00;99.90;;;;;;5026948;28;20038;-79
2022/11/26 03:41:25;;;;;;;62.70;27.05;;;3.00;99.90;;;;;;5009456;28;20046;-77
2022/11/26 03:43:50;;;;;;;57.53;24.67;;;3.00;99.90;;;;;;5010353;28;20038;-78
2022/11/26 03:46:16;;;;;;;53.70;23.88;;;2.90;99.90;;;;;;5006668;28;20516;-78
2022/11/26 03:48:42;;;;;;;54.13;23.75;;;2.90;99.90;;;;;;5007268;28;20046;-78
2022/11/26 03:51:08;;;;;;;51.53;24.05;;;2.80;99.90;;;;;;4977941;28;20050;-79
2022/11/26 03:53:33;;;;;;;57.17;26.52;;;2.80;99.90;;;;;;5071235;22;20127;-78
2022/11/26 03:55:59;;;;;;;73.57;29.15;;;2.80;99.90;;;;;;5037441;28;20135;-78
2022/11/26 03:58:25;;;;;;;58.92;27.85;;;2.80;99.90;;;;;;5030360;28;20048;-78
2022/11/26 04:00:51;;;;;;;64.72;29.83;;;2.80;99.90;;;;;;5035192;28;20040;-78
2022/11/26 04:03:17;;;;;;;82.07;31.40;;;2.90;99.90;;;;;;5033641;28;20558;-78
2022/11/26 04:05:43;;;;;;;84.28;34.53;;;2.90;99.90;;;;;;5017424;28;20037;-78
2022/11/26 04:08:08;;;;;;;80.78;34.42;;;2.90;99.90;;;;;;5017654;28;20044;-78
2022/11/26 04:10:34;;;;;;;82.43;33.95;;;3.00;99.90;;;;;;5017754;28;20515;-77
2022/11/26 04:13:00;;;;;;;55.58;31.10;;;3.00;99.90;;;;;;5031245;28;20053;-78
2022/11/26 04:15:28;;;;;;;66.65;34.10;;;3.10;99.90;;;;;;5035132;28;20125;-78
2022/11/26 04:17:54;;;;;;;68.10;34.22;;;3.10;99.90;;;;;;5032254;28;20041;-78
2022/11/26 04:20:23;;;;;;;75.15;34.22;;;3.20;99.90;;;;;;5033993;28;20411;-78
2022/11/26 04:22:48;;;;;;;62.65;33.60;;;3.30;99.90;;;;;;5030326;28;20059;-77
2022/11/26 04:25:14;;;;;;;111.53;40.42;;;3.30;99.90;;;;;;5037032;28;20540;-78
2022/11/26 04:27:47;;;;;;;113.55;40.78;;;3.30;99.90;;;;;;5036326;28;20036;-78
2022/11/26 04:30:13;;;;;;;;;;;3.30;99.90;;;;;;5037190;28;20059;-78
2022/11/26 04:32:39;;;;;;;67.68;34.28;;;3.30;99.90;;;;;;5035620;28;19920;-77
2022/11/26 04:35:07;;;;;;;76.40;36.67;;;3.30;99.90;;;;;;5035480;28;20048;-77
2022/11/26 04:37:33;;;;;;;83.80;38.35;;;3.30;99.90;;;;;;5043125;28;20051;-78
2022/11/26 04:39:59;;;;;;;93.25;39.13;;;3.30;99.90;;;;;;5035664;28;20036;-78
2022/11/26 04:42:25;;;;;;;87.70;37.78;;;3.40;99.90;;;;;;5035594;28;20563;-78
2022/11/26 04:44:51;;;;;;;104.05;40.63;;;3.20;99.90;;;;;;5036519;28;20315;-78
2022/11/26 04:47:17;;;;;;;100.45;39.88;;;3.20;99.90;;;;;;5035692;28;20036;-78
2022/11/26 04:49:43;;;;;;;88.13;36.97;;;3.20;99.90;;;;;;5036000;28;20110;-78
2022/11/26 04:52:09;;;;;;;98.38;39.60;;;3.10;99.90;;;;;;5033478;28;20485;-78
2022/11/26 04:54:35;;;;;;;103.03;42.38;;;3.20;99.90;;;;;;5038887;28;20069;-78
2022/11/26 04:57:01;;;;;;;93.32;39.08;;;3.10;99.90;;;;;;5039992;28;20123;-78
2022/11/26 04:59:27;;;;;;;71.43;36.05;;;3.10;99.90;;;;;;5038066;28;20041;-78
2022/11/26 05:01:52;;;;;;;93.35;38.60;;;3.10;99.90;;;;;;5034873;28;20037;-78
2022/11/26 05:04:19;;;;;;;100.60;38.65;;;3.00;99.90;;;;;;5035467;28;20504;-78
2022/11/26 05:06:45;;;;;;;111.40;40.92;;;3.00;99.90;;;;;;5039725;28;20103;-78
2022/11/26 05:09:11;;;;;;;75.78;36.05;;;3.00;99.90;;;;;;5039807;28;20055;-78
2022/11/26 05:11:37;;;;;;;108.38;41.05;;;2.90;99.90;;;;;;5038236;28;20523;-78
2022/11/26 05:14:03;;;;;;;101.85;40.58;;;3.00;99.90;;;;;;5039145;28;20048;-78
2022/11/26 05:16:28;;;;;;;118.65;42.40;;;2.90;99.90;;;;;;5038044;28;20451;-78
2022/11/26 05:18:57;;;;;;;87.30;39.92;;;2.90;99.90;;;;;;5039276;28;20036;-77
2022/11/26 05:21:22;;;;;;;118.53;41.08;;;2.90;99.90;;;;;;5035102;28;20040;-78
2022/11/26 05:23:48;;;;;;;95.53;39.30;;;3.00;99.90;;;;;;5039513;28;20045;-78
2022/11/26 05:26:14;;;;;;;99.60;41.17;;;2.80;99.90;;;;;;5037803;28;20141;-78
2022/11/26 05:28:40;;;;;;;96.38;37.67;;;2.90;99.90;;;;;;5037976;28;20071;-78
2022/11/26 05:31:06;;;;;;;80.50;38.80;;;2.80;99.90;;;;;;5038534;28;20052;-78
2022/11/26 05:33:32;;;;;;;87.18;40.50;;;2.90;99.90;;;;;;5038786;28;20040;-78
2022/11/26 05:35:58;;;;;;;75.05;38.22;;;2.90;99.90;;;;;;5038356;28;20101;-78
2022/11/26 05:38:23;;;;;;;77.47;38.75;;;2.90;99.90;;;;;;5035671;28;20072;-78
2022/11/26 05:40:49;;;;;;;85.72;39.95;;;2.90;99.90;;;;;;5034967;28;20401;-78
2022/11/26 05:43:16;;;;;;;83.75;39.40;;;3.00;99.90;;;;;;5038934;28;20551;-78
2022/11/26 05:45:41;;;;;;;81.93;38.67;;;3.00;99.90;;;;;;5038073;28;20131;-77
2022/11/26 05:48:07;;;;;;;89.15;40.60;;;3.00;99.90;;;;;;5038756;28;20124;-78
2022/11/26 05:50:33;;;;;;;111.78;43.53;;;3.00;99.90;;;;;;5036828;28;20072;-76
2022/11/26 05:52:59;;;;;;;80.25;37.70;;;3.00;99.90;;;;;;5033966;28;20487;-78
2022/11/26 05:55:24;;;;;;;97.22;40.03;;;2.90;99.90;;;;;;5036677;28;20044;-78
2022/11/26 05:57:51;;;;;;;79.47;37.15;;;2.90;99.90;;;;;;5038562;28;20121;-78
2022/11/26 06:00:17;;;;;;;77.28;37.88;;;2.90;99.90;;;;;;5038794;28;20482;-78
2022/11/26 06:02:43;;;;;;;103.38;40.42;;;2.90;99.90;;;;;;5036409;28;20110;-78
2022/11/26 06:05:09;;;;;;;84.68;37.70;;;2.90;99.90;;;;;;5054772;28;20044;-75
2022/11/26 06:07:35;;;;;;;99.57;39.50;;;2.80;99.90;;;;;;5040700;28;20040;-78
2022/11/26 06:10:01;;;;;;;112.03;40.80;;;2.80;99.90;;;;;;5040507;28;20036;-78
2022/11/26 06:12:27;;;;;;;85.28;38.70;;;2.80;99.90;;;;;;5038351;28;20040;-78
2022/11/26 06:14:55;;;;;;;112.95;42.88;;;2.80;99.90;;;;;;5038968;28;20068;-78
2022/11/26 06:17:21;;;;;;;108.50;43.45;;;2.80;99.90;;;;;;5035476;28;20403;-78
2022/11/26 06:19:46;;;;;;;96.50;40.95;;;2.90;99.90;;;;;;5038814;28;20162;-78
2022/11/26 06:22:12;;;;;;;95.35;40.88;;;2.90;99.90;;;;;;5037247;28;20394;-78
2022/11/26 06:24:38;;;;;;;94.50;40.70;;;2.90;99.90;;;;;;5038455;28;20070;-78
2022/11/26 06:27:04;;;;;;;97.63;42.20;;;2.90;99.90;;;;;;5036251;28;20032;-78
2022/11/26 06:29:30;;;;;;;83.43;38.80;;;2.90;99.90;;;;;;5037916;28;20040;-77
2022/11/26 06:31:56;;;;;;;87.90;42.47;;;2.90;99.90;;;;;;5037206;28;20044;-78
2022/11/26 06:34:22;;;;;;;107.65;44.47;;;3.00;99.90;;;;;;5033393;28;20103;-78
2022/11/26 06:36:47;;;;;;;118.22;45.42;;;3.00;99.90;;;;;;5038370;28;20040;-78
2022/11/26 06:39:13;;;;;;;100.97;42.13;;;3.10;99.90;;;;;;5036391;28;20036;-78
2022/11/26 06:41:40;;;;;;;132.20;46.72;;;3.00;99.90;;;;;;5053206;28;20040;-78
2022/11/26 06:44:05;;;;;;;110.75;44.17;;;3.10;99.90;;;;;;5034212;28;21259;-78
2022/11/26 06:46:34;;;;;;;85.60;39.80;;;3.10;99.90;;;;;;5033058;28;20115;-78
2022/11/26 06:49:01;;;;;;;103.75;42.05;;;3.10;99.90;;;;;;5037789;28;20474;-78
2022/11/26 06:51:27;;;;;;;91.95;40.13;;;3.10;99.90;;;;;;5036646;28;20036;-78
2022/11/26 06:53:53;;;;;;;114.03;43.75;;;3.10;99.90;;;;;;5037843;28;20493;-77
2022/11/26 06:56:19;;;;;;;130.18;45.47;;;3.10;99.90;;;;;;5034739;28;20056;-77
2022/11/26 06:58:49;;;;;;;103.20;41.28;;;3.00;99.90;;;;;;5037359;28;20043;-76
2022/11/26 07:01:20;;;;;;;76.40;36.90;;;3.10;99.90;;;;;;5035461;28;20028;-78
2022/11/26 07:03:46;;;;;;;89.43;41.10;;;3.00;99.90;;;;;;5030953;28;20106;-78
2022/11/26 07:06:27;;;;;;;94.45;41.22;;;3.10;99.90;;;;;;5051553;28;20045;-78
2022/11/26 07:08:55;;;;;;;132.88;47.97;;;3.10;99.90;;;;;;5033636;28;20644;-77
2022/11/26 07:11:22;;;;;;;97.43;41.45;;;3.10;99.90;;;;;;5030788;28;20063;-78
2022/11/26 07:13:48;;;;;;;111.72;41.28;;;3.10;99.90;;;;;;5031344;28;20105;-78
2022/11/26 07:16:14;;;;;;;103.43;41.03;;;3.10;99.90;;;;;;5031587;28;20064;-78
2022/11/26 07:18:40;;;;;;;102.13;41.38;;;3.00;99.90;;;;;;5035939;28;20067;-77
2022/11/26 07:21:14;;;;;;;109.35;41.53;;;3.10;99.90;;;;;;5035674;28;20037;-77
2022/11/26 07:23:40;;;;;;;129.13;46.40;;;3.10;99.90;;;;;;5033883;28;20370;-78
2022/11/26 07:26:07;;;;;;;83.40;37.63;;;3.10;99.90;;;;;;5033404;28;20036;-77
2022/11/26 07:28:34;;;;;;;94.65;39.90;;;3.10;99.90;;;;;;5049617;28;20041;-78
2022/11/26 07:31:01;;;;;;;94.45;40.50;;;3.20;99.90;;;;;;5033335;28;20045;-78
2022/11/26 07:33:28;;;;;;;82.35;37.08;;;3.20;99.90;;;;;;5037169;28;20071;-77
2022/11/26 07:35:57;;;;;;;95.38;40.13;;;3.20;99.90;;;;;;5037055;28;20490;-77
2022/11/26 07:38:23;;;;;;;93.18;38.92;;;3.20;99.90;;;;;;5034690;28;20045;-78
2022/11/26 07:40:49;;;;;;;100.20;40.42;;;3.20;99.90;;;;;;5037045;28;20552;-78
2022/11/26 07:43:15;;;;;;;92.70;40.75;;;3.20;99.90;;;;;;5033645;28;20079;-78
2022/11/26 07:45:41;;;;;;;97.82;39.08;;;3.40;99.90;;;;;;5048410;28;20463;-77
2022/11/26 07:48:06;;;;;;;111.35;40.67;;;3.30;99.90;;;;;;5033574;28;20090;-77
2022/11/26 07:50:32;;;;;;;99.70;39.25;;;3.30;99.90;;;;;;5035034;28;20044;-76
2022/11/26 07:52:58;;;;;;;131.80;43.58;;;3.30;99.90;;;;;;5046931;28;20040;-78
2022/11/26 07:55:24;;;;;;;101.15;40.47;;;3.30;99.90;;;;;;5030122;28;20032;-79
2022/11/26 07:57:50;;;;;;;166.10;46.28;;;3.30;99.90;;;;;;5034564;28;20502;-78
2022/11/26 08:00:16;;;;;;;92.75;38.03;;;3.40;99.90;;;;;;5033823;28;21435;-77
2022/11/26 08:02:42;;;;;;;84.85;35.55;;;3.40;99.90;;;;;;5031014;28;20041;-78
2022/11/26 08:05:08;;;;;;;85.40;37.50;;;3.40;99.90;;;;;;5027454;28;20060;-77
2022/11/26 08:07:35;;;;;;;133.60;45.65;;;3.50;99.90;;;;;;5033317;28;20482;-79
2022/11/26 08:10:05;;;;;;;73.50;36.30;;;3.50;99.90;;;;;;5035764;28;20071;-78
2022/11/26 08:12:31;;;;;;;70.25;35.00;;;3.60;99.90;;;;;;5037135;28;20443;-78
2022/11/26 08:14:57;;;;;;;89.07;39.30;;;3.70;99.90;;;;;;5037876;28;20090;-79
2022/11/26 08:17:22;;;;;;;82.75;37.53;;;3.70;99.90;;;;;;5036222;28;20517;-78
2022/11/26 08:19:48;;;;;;;93.80;40.28;;;3.70;99.90;;;;;;5037337;28;20041;-78
2022/11/26 08:22:16;;;;;;;94.47;38.85;;;3.80;99.90;;;;;;5037472;28;20058;-79
2022/11/26 08:24:42;;;;;;;81.00;37.53;;;3.80;99.90;;;;;;5037500;28;20040;-78
2022/11/26 08:27:07;;;;;;;89.57;37.40;;;3.80;99.90;;;;;;5038564;28;20052;-78
2022/11/26 08:29:36;;;;;;;82.43;38.58;;;3.90;99.90;;;;;;5040541;28;20151;-77
2022/11/26 08:32:05;;;;;;;84.53;37.30;;;3.90;99.90;;;;;;5041371;28;20036;-78
2022/11/26 08:34:34;;;;;;;81.65;37.35;;;4.00;99.90;;;;;;5039229;28;20509;-78
2022/11/26 08:37:00;;;;;;;97.25;40.30;;;4.00;99.90;;;;;;5040898;28;20051;-77
2022/11/26 08:39:25;;;;;;;85.10;36.33;;;4.10;99.90;;;;;;5040014;28;20041;-78
2022/11/26 08:41:52;;;;;;;108.63;42.50;;;4.10;99.90;;;;;;5040406;28;20032;-78
2022/11/26 08:44:18;;;;;;;88.03;38.42;;;4.10;99.90;;;;;;5040667;28;20147;-78
2022/11/26 08:46:44;;;;;;;93.47;39.40;;;4.10;99.90;;;;;;5041237;28;20036;-79
2022/11/26 08:49:11;;;;;;;97.90;41.20;;;4.20;99.90;;;;;;5041188;28;20054;-78
2022/11/26 08:51:42;;;;;;;109.65;43.13;;;4.20;99.90;;;;;;5041465;28;20040;-79
2022/11/26 08:54:08;;;;;;;105.28;42.35;;;4.30;99.90;;;;;;5039699;28;20105;-79
2022/11/26 08:56:35;;;;;;;109.78;44.17;;;4.30;99.90;;;;;;5044834;28;20045;-77
2022/11/26 08:59:01;;;;;;;74.40;38.17;;;4.40;99.90;;;;;;5051527;28;20036;-78
2022/11/26 09:01:31;;;;;;;102.40;44.08;;;4.40;99.90;;;;;;5039221;28;20347;-79
2022/11/26 09:03:59;;;;;;;104.30;44.30;;;4.60;99.90;;;;;;5040000;28;20037;-78
2022/11/26 09:06:27;;;;;;;111.20;46.38;;;4.70;99.90;;;;;;5036513;28;20095;-79
2022/11/26 09:09:36;;;;;;;131.55;49.47;;;4.80;99.90;;;;;;5036088;28;20049;-79
2022/11/26 09:11:56;;;;;;;109.57;45.40;;;4.80;99.90;;;;;;5047561;28;20182;-79
2022/11/26 09:14:28;;;;;;;104.30;46.90;;;5.00;99.90;;;;;;5034333;28;20124;-79
2022/11/26 09:16:57;;;;;;;107.47;46.53;;;5.00;99.90;;;;;;5039587;28;20041;-79
2022/11/26 09:19:23;;;;;;;94.95;45.13;;;5.10;99.90;;;;;;5040133;28;20040;-79
2022/11/26 09:21:49;;;;;;;93.35;44.05;;;5.20;99.90;;;;;;5038621;28;20036;-79
2022/11/26 09:24:18;;;;;;;102.05;46.10;;;5.30;99.90;;;;;;5038978;28;20120;-79
2022/11/26 09:26:45;;;;;;;85.72;43.75;;;5.30;99.90;;;;;;5031495;28;20037;-79
2022/11/26 09:29:20;;;;;;;94.13;44.03;;;5.40;99.90;;;;;;5039649;28;20493;-79
2022/11/26 09:31:47;;;;;;;94.53;44.60;;;5.50;99.90;;;;;;5038377;28;20079;-79
2022/11/26 09:34:13;;;;;;;142.35;49.83;;;5.50;99.90;;;;;;5038017;28;20036;-79
2022/11/26 09:36:39;;;;;;;79.50;41.30;;;5.60;99.90;;;;;;5039863;28;20334;-79
2022/11/26 09:39:06;;;;;;;82.88;42.75;;;5.60;99.90;;;;;;5038978;28;20125;-78
2022/11/26 09:41:55;;;;;;;83.75;43.58;;;5.70;99.90;;;;;;5039608;28;20429;-79
2022/11/26 09:44:55;;;;;;;109.28;46.42;;;5.80;99.90;;;;;;5038404;28;20465;-79
2022/11/26 09:47:30;;;;;;;110.80;48.13;;;5.90;99.90;;;;;;5039190;28;20085;-79
2022/11/26 09:50:05;;;;;;;100.80;45.30;;;6.00;99.90;;;;;;5038301;28;20044;-79
2022/11/26 09:52:54;;;;;;;94.35;44.83;;;6.10;99.90;;;;;;5038015;28;20048;-79
2022/11/26 09:55:32;;;;;;;81.68;42.80;;;6.20;99.90;;;;;;5031271;28;20052;-78
2022/11/26 09:58:00;;;;;;;101.43;45.65;;;6.30;99.90;;;;;;5055742;28;20080;-79
2022/11/26 10:00:30;;;;;;;92.35;45.72;;;6.40;99.90;;;;;;5038211;28;20099;-79
2022/11/26 10:02:56;;;;;;;109.00;46.10;;;6.40;99.90;;;;;;5038773;28;20499;-79
2022/11/26 10:05:41;;;;;;;79.07;40.83;;;6.50;99.90;;;;;;5039973;28;20406;-79
2022/11/26 10:08:39;;;;;;;71.60;37.60;;;6.60;99.90;;;;;;5039799;28;20043;-79
2022/11/26 10:11:32;;;;;;;86.22;41.17;;;6.60;99.90;;;;;;5039582;28;20036;-79
2022/11/26 10:14:54;;;;;;;93.25;42.13;;;6.70;99.90;;;;;;5039175;28;20044;-78
2022/11/26 10:17:34;;;;;;;91.32;39.83;;;6.90;99.90;;;;;;4973475;28;20080;-79
2022/11/26 10:20:51;;;;;;;81.38;39.13;;;6.90;99.90;;;;;;5056135;28;20297;-79
2022/11/26 10:23:24;;;;;;;94.45;38.97;;;7.00;99.90;;;;;;4995184;28;20038;-78
2022/11/26 10:25:58;;;;;;;78.88;36.10;;;7.10;99.90;;;;;;5030442;28;20367;-79
2022/11/26 10:28:32;;;;;;;80.60;38.03;;;7.10;99.90;;;;;;5034780;28;20036;-79
2022/11/26 10:31:02;;;;;;;72.07;35.38;;;7.20;99.90;;;;;;5039620;28;20120;-79
2022/11/26 10:33:33;;;;;;;96.22;37.67;;;7.20;99.90;;;;;;5056160;28;20041;-79
2022/11/26 10:35:58;;;;;;;86.30;37.17;;;7.20;99.90;;;;;;5055847;28;20044;-79
2022/11/26 10:38:24;;;;;;;68.00;32.22;;;7.30;99.90;;;;;;5038734;28;20055;-79
2022/11/26 10:40:50;;;;;;;68.85;32.22;;;7.30;99.90;;;;;;5039392;28;20041;-79
2022/11/26 10:43:23;;;;;;;84.35;33.80;;;7.40;99.90;;;;;;5037244;28;20533;-79
2022/11/26 10:45:50;;;;;;;;;;;7.40;99.90;;;;;;5032992;28;20410;-79
2022/11/26 10:48:33;;;;;;;73.97;32.58;;;7.40;99.90;;;;;;5038997;28;19922;-79
2022/11/26 10:51:24;;;;;;;62.90;31.30;;;7.50;99.90;;;;;;5038438;28;20044;-79
2022/11/26 10:53:58;;;;;;;61.70;30.42;;;7.50;99.90;;;;;;5033390;28;20050;-78
2022/11/26 10:56:33;;;;;;;54.88;27.98;;;7.50;99.90;;;;;;5039581;28;20086;-79
2022/11/26 10:59:03;;;;;;;60.80;29.92;;;7.60;99.90;;;;;;5039176;28;20055;-79
2022/11/26 11:01:37;;;;;;;118.68;38.33;;;7.60;99.90;;;;;;5039567;28;20132;-79
2022/11/26 11:04:26;;;;;;;67.35;33.10;;;7.60;99.90;;;;;;5039263;28;20037;-79
2022/11/26 11:06:53;;;;;;;65.03;32.35;;;7.60;99.90;;;;;;5037220;28;20041;-78
2022/11/26 11:09:27;;;;;;;68.05;32.50;;;7.60;99.90;;;;;;5039120;28;20052;-79
2022/11/26 11:12:19;;;;;;;56.55;28.95;;;7.70;99.90;;;;;;5038508;28;20066;-79
2022/11/26 11:14:46;;;;;;;57.25;30.13;;;7.70;99.90;;;;;;5039533;28;20525;-79
2022/11/26 11:17:35;;;;;;;55.63;30.02;;;7.80;99.90;;;;;;5053239;28;21374;-78
2022/11/26 11:20:24;;;;;;;50.55;26.75;;;7.70;99.90;;;;;;5033408;28;20044;-79
2022/11/26 11:23:17;;;;;;;67.03;30.38;;;7.80;99.90;;;;;;5054573;28;20277;-79
2022/11/26 11:26:05;;;;;;;63.95;30.05;;;7.80;99.90;;;;;;5056326;28;20393;-79
2022/11/26 11:28:35;;;;;;;52.17;28.17;;;7.80;99.90;;;;;;5039227;28;20037;-79
2022/11/26 11:31:11;;;;;;;54.47;29.08;;;7.90;99.90;;;;;;5038412;28;20062;-78
2022/11/26 11:33:38;;;;;;;53.30;27.38;;;8.00;99.90;;;;;;5038311;28;20037;-79
2022/11/26 11:36:13;;;;;;;54.65;27.02;;;8.00;99.90;;;;;;5038940;28;20043;-78
2022/11/26 11:39:00;;;;;;;56.40;26.88;;;8.00;99.90;;;;;;5039108;28;20051;-79
2022/11/26 11:41:41;;;;;;;53.17;26.95;;;8.00;99.90;;;;;;5039144;28;20174;-79
2022/11/26 11:44:17;;;;;;;48.58;25.88;;;8.10;99.90;;;;;;5038505;28;20040;-78
2022/11/26 11:47:13;;;;;;;50.03;25.27;;;8.10;99.90;;;;;;5041332;28;20024;-75
2022/11/26 11:49:57;;;;;;;44.75;24.35;;;8.10;99.90;;;;;;5041411;28;20045;-77
2022/11/26 11:52:50;;;;;;;45.67;25.42;;;8.10;99.90;;;;;;5034054;28;20040;-78
2022/11/26 11:55:35;;;;;;;60.03;26.92;;;8.10;99.90;;;;;;5036357;28;20119;-79
2022/11/26 11:58:21;;;;;;;39.08;22.42;;;8.10;99.90;;;;;;5018539;28;20403;-79
2022/11/26 12:01:12;;;;;;;54.92;25.15;;;8.20;99.90;;;;;;5035871;28;20075;-79
2022/11/26 12:03:48;;;;;;;50.28;25.27;;;8.20;99.90;;;;;;5019595;28;20474;-78
2022/11/26 12:06:23;;;;;;;52.80;25.77;;;8.20;99.90;;;;;;5047644;28;20040;-78
2022/11/26 12:09:22;;;;;;;72.50;27.58;;;8.20;99.90;;;;;;5041730;28;20049;-78
2022/11/26 12:12:17;;;;;;;42.95;22.88;;;8.20;99.90;;;;;;5063767;28;20513;-78
2022/11/26 12:14:58;;;;;;;46.45;23.40;;;8.30;99.90;;;;;;5028888;28;20052;-78
2022/11/26 12:17:27;;;;;;;46.47;23.98;;;8.30;99.90;;;;;;5045824;28;20040;-77
2022/11/26 12:20:20;;;;;;;45.35;22.30;;;8.30;99.90;;;;;;5034577;28;20102;-79
2022/11/26 12:23:07;;;;;;;;;;;8.40;99.90;;;;;;5046794;28;20429;-80
2022/11/26 12:25:35;;;;;;;42.40;21.27;;;8.50;99.90;;;;;;5040708;28;20382;-78
2022/11/26 12:28:16;;;;;;;38.92;21.52;;;8.50;99.90;;;;;;5046716;28;20046;-79
2022/11/26 12:31:00;;;;;;;48.30;22.45;;;8.40;99.90;;;;;;5039326;28;20044;-78
2022/11/26 12:33:30;;;;;;;45.25;21.98;;;8.50;99.90;;;;;;5065899;28;20101;-77
2022/11/26 12:35:59;;;;;;;38.55;21.08;;;8.60;99.90;;;;;;5044035;28;20124;-78
2022/11/26 12:38:40;;;;;;;52.15;22.77;;;8.60;99.90;;;;;;5061710;28;20394;-77
2022/11/26 12:41:10;;;;;;;36.72;20.15;;;8.60;99.90;;;;;;5065872;28;20432;-78
2022/11/26 12:44:00;;;;;;;39.50;19.58;;;8.60;99.90;;;;;;5050348;28;20486;-78
2022/11/26 12:46:51;;;;;;;39.00;20.90;;;8.70;99.90;;;;;;5060391;28;20032;-78
2022/11/26 12:49:35;;;;;;;35.45;19.50;;;8.70;99.90;;;;;;5048830;28;20044;-77
2022/11/26 12:52:27;;;;;;;29.85;17.88;;;8.80;99.90;;;;;;5041542;28;20127;-76
2022/11/26 12:54:53;;;;;;;37.35;19.52;;;8.80;99.90;;;;;;5037737;28;20048;-77
2022/11/26 12:57:27;;;;;;;42.47;19.13;;;8.90;99.90;;;;;;5037930;28;20086;-78